createdAt,value
2019-02-25T00:02:04.626Z,11.70
2019-02-25T00:04:36.212Z,11.83
2019-02-25T00:07:07.266Z,12.40
2019-02-25T00:09:38.828Z,11.30
2019-02-25T00:12:10.166Z,14.20
2019-02-25T00:14:41.188Z,14.30
2019-02-25T00:17:13.041Z,11.30
2019-02-25T00:19:44.626Z,15.90
2019-02-25T00:22:16.327Z,12.37
2019-02-25T00:24:47.583Z,14.20
2019-02-25T00:27:18.847Z,11.63
2019-02-25T00:29:50.751Z,16.75
2019-02-25T00:32:21.737Z,12.43
2019-02-25T00:34:52.899Z,15.63
2019-02-25T00:37:24.643Z,13.98
2019-02-25T00:39:56.514Z,13.62
2019-02-25T00:42:28.040Z,13.38
2019-02-25T00:44:59.609Z,13.62
2019-02-25T00:47:31.202Z,13.00
2019-02-25T00:50:02.687Z,14.55
2019-02-25T00:52:34.543Z,15.70
2019-02-25T00:55:06.427Z,14.65
2019-02-25T00:57:38.072Z,13.35
2019-02-25T01:00:13.346Z,15.20
2019-02-25T01:02:44.341Z,18.45
2019-02-25T01:05:16.440Z,13.05
2019-02-25T01:07:47.748Z,16.97
2019-02-25T01:10:19.291Z,15.05
2019-02-25T01:12:50.389Z,13.43
2019-02-25T01:15:22.417Z,11.95
2019-02-25T01:17:53.676Z,14.70
2019-02-25T01:20:24.626Z,21.00
2019-02-25T01:22:55.842Z,12.88
2019-02-25T01:25:27.240Z,11.57
2019-02-25T01:27:58.988Z,15.15
2019-02-25T01:30:30.418Z,13.22
2019-02-25T01:33:01.706Z,11.05
2019-02-25T01:35:32.659Z,13.00
2019-02-25T01:38:04.513Z,14.13
2019-02-25T01:40:36.115Z,16.42
2019-02-25T01:43:07.498Z,15.50
2019-02-25T01:45:38.899Z,11.68
2019-02-25T01:48:09.912Z,15.03
2019-02-25T01:50:41.450Z,10.10
2019-02-25T01:53:13.064Z,9.75
2019-02-25T01:55:44.289Z,13.05
2019-02-25T01:58:15.877Z,12.98
2019-02-25T02:00:47.412Z,11.15
2019-02-25T02:03:18.763Z,10.58
2019-02-25T02:05:50.572Z,9.40
2019-02-25T02:08:22.081Z,9.70
2019-02-25T02:10:53.671Z,11.43
2019-02-25T02:13:25.208Z,9.73
2019-02-25T02:15:56.780Z,13.13
2019-02-25T02:18:28.315Z,12.03
2019-02-25T02:20:59.884Z,10.38
2019-02-25T02:23:30.913Z,12.43
2019-02-25T02:26:02.457Z,10.40
2019-02-25T02:28:34.277Z,16.87
2019-02-25T02:31:06.144Z,10.70
2019-02-25T02:33:37.698Z,11.28
2019-02-25T02:36:11.600Z,11.93
2019-02-25T02:38:42.167Z,9.28
2019-02-25T02:41:13.835Z,13.25
2019-02-25T02:43:45.867Z,11.43
2019-02-25T02:47:12.834Z,10.98
2019-02-25T02:49:43.914Z,12.68
2019-02-25T02:52:14.888Z,11.12
2019-02-25T02:54:46.507Z,11.28
2019-02-25T02:57:17.951Z,12.10
2019-02-25T02:59:49.246Z,13.05
2019-02-25T03:02:21.116Z,10.58
2019-02-25T03:04:52.400Z,12.60
2019-02-25T03:07:24.047Z,12.10
2019-02-25T03:09:56.001Z,12.68
2019-02-25T03:12:27.215Z,12.25
2019-02-25T03:14:58.438Z,11.28
2019-02-25T03:17:29.460Z,11.33
2019-02-25T03:20:01.287Z,9.35
2019-02-25T03:22:32.283Z,10.90
2019-02-25T03:25:03.068Z,9.95
2019-02-25T03:27:34.657Z,11.12
2019-02-25T03:30:07.995Z,11.10
2019-02-25T03:32:39.715Z,11.75
2019-02-25T03:35:10.902Z,11.57
2019-02-25T03:37:42.890Z,10.00
2019-02-25T03:40:17.275Z,12.03
2019-02-25T03:42:48.863Z,17.92
2019-02-25T03:45:21.114Z,11.80
2019-02-25T03:47:53.029Z,13.80
2019-02-25T03:50:23.890Z,11.48
2019-02-25T03:52:54.846Z,11.68
2019-02-25T03:55:26.019Z,12.03
2019-02-25T03:57:57.777Z,9.40
2019-02-25T04:00:29.455Z,11.73
2019-02-25T04:03:01.017Z,11.20
2019-02-25T04:05:32.288Z,9.35
2019-02-25T04:08:04.102Z,17.92
2019-02-25T04:10:35.085Z,11.25
2019-02-25T04:13:05.740Z,10.80
2019-02-25T04:15:40.510Z,15.55
2019-02-25T04:18:11.486Z,9.60
2019-02-25T04:20:43.038Z,12.13
2019-02-25T04:23:14.596Z,13.45
2019-02-25T04:25:46.171Z,11.15
2019-02-25T04:28:17.558Z,9.55
2019-02-25T04:30:49.446Z,10.75
2019-02-25T04:33:20.983Z,9.25
2019-02-25T04:35:52.233Z,12.50
2019-02-25T04:38:23.323Z,11.35
2019-02-25T04:40:54.650Z,11.90
2019-02-25T04:43:25.910Z,10.88
2019-02-25T04:45:57.147Z,10.35
2019-02-25T04:48:28.385Z,12.75
2019-02-25T04:50:59.776Z,10.40
2019-02-25T04:53:31.361Z,12.58
2019-02-25T04:56:02.588Z,14.05
2019-02-25T04:58:34.635Z,12.00
2019-02-25T05:01:05.670Z,14.98
2019-02-25T05:03:37.413Z,10.60
2019-02-25T05:06:09.430Z,8.90
2019-02-25T05:08:41.511Z,12.65
2019-02-25T05:11:12.793Z,33.15
2019-02-25T05:13:44.331Z,10.48
2019-02-25T05:16:22.919Z,12.13
2019-02-25T05:18:54.750Z,14.47
2019-02-25T05:21:26.650Z,11.05
2019-02-25T05:23:57.962Z,11.30
2019-02-25T05:26:29.467Z,10.20
2019-02-25T05:29:00.733Z,11.75
2019-02-25T05:31:31.750Z,8.93
2019-02-25T05:34:02.438Z,8.55
2019-02-25T05:36:33.374Z,10.55
2019-02-25T05:39:05.961Z,8.00
2019-02-25T05:41:37.546Z,13.13
2019-02-25T05:44:08.779Z,11.08
2019-02-25T05:46:40.612Z,10.53
2019-02-25T05:49:12.308Z,12.25
2019-02-25T05:51:44.156Z,11.97
2019-02-25T05:54:16.026Z,10.60
2019-02-25T05:56:47.544Z,13.32
2019-02-25T05:59:19.263Z,10.65
2019-02-25T06:01:51.141Z,13.35
2019-02-25T06:04:22.680Z,14.98
2019-02-25T06:06:53.769Z,19.92
2019-02-25T06:09:25.477Z,15.30
2019-02-25T06:11:57.127Z,12.53
2019-02-25T06:14:29.121Z,13.18
2019-02-25T06:17:01.277Z,16.25
2019-02-25T06:19:33.151Z,17.62
2019-02-25T06:22:04.820Z,12.65
2019-02-25T06:24:36.423Z,15.15
2019-02-25T06:27:07.746Z,15.50
2019-02-25T06:29:39.433Z,14.43
2019-02-25T06:32:12.154Z,13.65
2019-02-25T06:34:43.735Z,16.97
2019-02-25T06:37:15.686Z,16.82
2019-02-25T06:39:46.368Z,14.55
2019-02-25T06:42:18.025Z,14.07
2019-02-25T06:44:49.592Z,20.50
2019-02-25T06:47:21.183Z,14.30
2019-02-25T06:49:52.936Z,12.88
2019-02-25T06:52:24.858Z,12.68
2019-02-25T06:54:55.578Z,11.80
2019-02-25T06:57:27.407Z,10.63
2019-02-25T06:59:59.020Z,11.50
2019-02-25T07:02:30.986Z,17.85
2019-02-25T07:05:16.082Z,13.80
2019-02-25T07:07:53.238Z,10.00
2019-02-25T07:10:43.106Z,11.90
2019-02-25T07:13:31.787Z,10.75
2019-02-25T07:16:24.994Z,13.15
2019-02-25T07:19:15.651Z,10.70
2019-02-25T07:22:05.970Z,13.28
2019-02-25T07:24:55.212Z,14.85
2019-02-25T07:27:39.502Z,12.10
2019-02-25T07:30:28.537Z,24.30
2019-02-25T07:33:21.252Z,16.40
2019-02-25T07:36:09.787Z,9.13
2019-02-25T07:39:18.754Z,11.20
2019-02-25T07:42:12.068Z,15.15
2019-02-25T07:45:08.096Z,11.95
2019-02-25T07:47:50.561Z,11.03
2019-02-25T07:50:34.699Z,11.38
2019-02-25T07:53:13.603Z,11.75
2019-02-25T07:56:06.313Z,11.88
2019-02-25T07:59:00.087Z,12.63
2019-02-25T08:01:38.065Z,10.40
2019-02-25T08:04:25.023Z,12.35
2019-02-25T08:07:14.058Z,11.73
2019-02-25T08:09:52.738Z,8.95
2019-02-25T08:12:40.764Z,9.98
2019-02-25T08:15:26.528Z,9.70
2019-02-25T08:18:15.544Z,11.00
2019-02-25T08:20:59.859Z,12.85
2019-02-25T08:23:39.714Z,10.23
2019-02-25T08:26:29.428Z,9.18
2019-02-25T08:29:31.221Z,19.95
2019-02-25T08:32:09.527Z,10.43
2019-02-25T08:35:05.709Z,13.58
2019-02-25T08:38:17.374Z,11.38
2019-02-25T08:41:32.163Z,10.43
2019-02-25T08:44:12.897Z,13.00
2019-02-25T08:47:03.344Z,10.58
2019-02-25T08:49:41.913Z,13.08
2019-02-25T08:52:14.010Z,10.43
2019-02-25T08:54:46.112Z,12.63
2019-02-25T08:57:16.810Z,10.88
2019-02-25T08:59:48.369Z,11.93
2019-02-25T09:02:20.731Z,11.83
2019-02-25T09:04:52.358Z,12.28
2019-02-25T09:07:23.550Z,10.32
2019-02-25T09:09:55.371Z,9.60
2019-02-25T09:12:27.033Z,11.40
2019-02-25T09:14:58.288Z,13.85
2019-02-25T09:17:29.513Z,9.18
2019-02-25T09:20:01.244Z,11.38
2019-02-25T09:22:32.374Z,11.53
2019-02-25T09:25:04.139Z,11.88
2019-02-25T09:27:34.774Z,12.98
2019-02-25T09:30:07.848Z,10.80
2019-02-25T09:32:39.620Z,15.18
2019-02-25T09:35:10.941Z,13.75
2019-02-25T09:37:42.198Z,11.33
2019-02-25T09:40:15.803Z,13.20
2019-02-25T09:42:47.041Z,12.45
2019-02-25T09:45:18.189Z,13.50
2019-02-25T09:47:49.651Z,8.93
2019-02-25T09:50:21.303Z,12.28
2019-02-25T09:52:53.259Z,9.60
2019-02-25T09:55:24.998Z,7.23
2019-02-25T09:57:56.081Z,6.90
2019-02-25T10:00:27.805Z,8.47
2019-02-25T10:02:58.966Z,13.05
2019-02-25T10:05:30.852Z,7.87
2019-02-25T10:08:02.536Z,6.77
2019-02-25T10:10:34.094Z,9.40
2019-02-25T10:13:05.597Z,7.50
2019-02-25T10:15:37.354Z,9.23
2019-02-25T10:18:08.981Z,12.93
2019-02-25T10:20:40.126Z,9.13
2019-02-25T10:23:11.476Z,7.70
2019-02-25T10:25:43.026Z,6.13
2019-02-25T10:28:14.290Z,10.63
2019-02-25T10:30:52.633Z,9.33
2019-02-25T10:33:18.854Z,6.43
2019-02-25T10:35:50.163Z,6.30
2019-02-25T10:38:21.737Z,6.27
2019-02-25T10:40:53.897Z,4.80
2019-02-25T10:43:27.405Z,6.10
2019-02-25T10:45:58.201Z,6.70
2019-02-25T10:48:28.702Z,8.43
2019-02-25T10:51:00.431Z,5.47
2019-02-25T10:53:31.715Z,12.40
2019-02-25T10:56:30.871Z,5.20
2019-02-25T10:59:04.505Z,8.33
2019-02-25T11:01:37.555Z,9.13
2019-02-25T11:04:10.041Z,16.13
2019-02-25T11:06:41.478Z,5.77
2019-02-25T11:09:31.483Z,8.60
2019-02-25T11:12:03.070Z,9.33
2019-02-25T11:14:35.938Z,7.23
2019-02-25T11:17:07.494Z,11.40
2019-02-25T11:19:39.195Z,19.03
2019-02-25T11:22:12.130Z,13.53
2019-02-25T11:24:46.846Z,7.33
2019-02-25T11:27:18.286Z,6.77
2019-02-25T11:29:50.097Z,9.97
2019-02-25T11:32:23.780Z,11.53
2019-02-25T11:34:54.955Z,10.13
2019-02-25T11:37:27.083Z,5.90
2019-02-25T11:39:59.838Z,5.43
2019-02-25T11:42:31.712Z,9.97
2019-02-25T11:45:04.467Z,8.83
2019-02-25T11:47:36.233Z,9.67
2019-02-25T11:50:08.735Z,7.43
2019-02-25T11:52:41.078Z,8.77
2019-02-25T11:55:13.574Z,8.90
2019-02-25T11:57:44.825Z,5.43
2019-02-25T12:00:21.755Z,9.63
2019-02-25T12:02:52.793Z,7.23
2019-02-25T12:05:24.380Z,7.03
2019-02-25T12:07:55.903Z,8.13
2019-02-25T12:10:27.749Z,10.30
2019-02-25T12:12:59.601Z,9.47
2019-02-25T12:15:31.261Z,6.97
2019-02-25T12:18:02.584Z,6.37
2019-02-25T12:20:34.420Z,12.10
2019-02-25T12:23:05.491Z,11.07
2019-02-25T12:25:36.611Z,7.63
2019-02-25T12:28:08.149Z,9.73
2019-02-25T12:30:39.819Z,6.60
2019-02-25T12:33:11.264Z,6.07
2019-02-25T12:35:42.868Z,9.63
2019-02-25T12:38:14.501Z,24.40
2019-02-25T12:40:46.451Z,8.03
2019-02-25T12:43:17.455Z,10.87
2019-02-25T12:45:48.741Z,7.50
2019-02-25T12:48:22.683Z,8.77
2019-02-25T12:50:53.693Z,7.50
2019-02-25T12:53:24.983Z,5.90
2019-02-25T12:55:56.940Z,6.47
2019-02-25T12:58:28.733Z,7.63
2019-02-25T13:00:59.848Z,13.03
2019-02-25T13:03:31.172Z,14.17
2019-02-25T13:06:02.852Z,7.80
2019-02-25T13:08:34.202Z,8.07
2019-02-25T13:11:06.326Z,6.60
2019-02-25T13:13:37.681Z,8.57
2019-02-25T13:16:09.032Z,5.10
2019-02-25T13:18:41.098Z,6.20
2019-02-25T13:21:13.018Z,6.63
2019-02-25T13:23:44.668Z,7.63
2019-02-25T13:26:16.179Z,7.10
2019-02-25T13:28:47.499Z,5.77
2019-02-25T13:31:18.521Z,7.50
2019-02-25T13:33:50.591Z,5.50
2019-02-25T13:36:21.861Z,5.77
2019-02-25T13:38:52.559Z,5.80
2019-02-25T13:41:24.228Z,8.17
2019-02-25T13:43:55.305Z,12.27
2019-02-25T13:46:27.307Z,9.17
2019-02-25T13:48:58.900Z,8.30
2019-02-25T13:51:30.895Z,6.90
2019-02-25T13:54:02.738Z,5.10
2019-02-25T13:56:34.056Z,11.20
2019-02-25T13:59:05.190Z,5.20
2019-02-25T14:01:36.757Z,6.23
2019-02-25T14:04:08.454Z,5.93
2019-02-25T14:06:40.272Z,4.30
2019-02-25T14:09:12.217Z,6.10
2019-02-25T14:11:43.829Z,4.30
2019-02-25T14:14:15.648Z,4.80
2019-02-25T14:16:47.775Z,6.20
2019-02-25T14:19:19.086Z,5.40
2019-02-25T14:21:50.166Z,4.93
2019-02-25T14:24:21.283Z,8.10
2019-02-25T14:26:54.537Z,6.03
2019-02-25T14:29:26.401Z,5.63
2019-02-25T14:31:57.757Z,8.90
2019-02-25T14:34:29.449Z,5.03
2019-02-25T14:37:02.672Z,4.17
2019-02-25T14:39:35.968Z,4.10
2019-02-25T14:42:09.302Z,4.00
2019-02-25T14:44:43.050Z,3.83
2019-02-25T14:47:20.544Z,6.73
2019-02-25T14:49:47.594Z,7.73
2019-02-25T14:52:19.306Z,6.90
2019-02-25T14:54:52.152Z,4.63
2019-02-25T14:57:24.844Z,6.23
2019-02-25T14:59:56.925Z,4.17
2019-02-25T15:02:28.854Z,8.77
2019-02-25T15:05:00.390Z,5.43
2019-02-25T15:07:32.401Z,7.87
2019-02-25T15:10:04.274Z,6.90
2019-02-25T15:12:37.754Z,3.63
2019-02-25T15:15:13.120Z,5.47
2019-02-25T15:17:46.088Z,4.93
2019-02-25T15:20:18.605Z,4.33
2019-02-25T15:22:51.639Z,4.73
2019-02-25T15:25:23.408Z,7.40
2019-02-25T15:27:54.040Z,5.43
2019-02-25T15:30:28.295Z,6.93
2019-02-25T15:33:00.228Z,4.20
2019-02-25T15:35:34.663Z,7.10
2019-02-25T15:38:04.528Z,5.90
2019-02-25T15:40:35.807Z,4.87
2019-02-25T15:43:15.096Z,4.50
2019-02-25T15:45:46.098Z,8.40
2019-02-25T15:48:20.252Z,4.13
2019-02-25T15:50:55.980Z,5.47
2019-02-25T15:53:28.254Z,4.27
2019-02-25T15:56:01.345Z,6.50
2019-02-25T15:58:32.055Z,5.53
2019-02-25T16:01:03.418Z,3.70
2019-02-25T16:03:36.642Z,8.40
2019-02-25T16:06:10.616Z,4.20
2019-02-25T16:08:42.667Z,10.50
2019-02-25T16:11:16.196Z,5.27
2019-02-25T16:13:47.554Z,4.90
2019-02-25T16:16:20.189Z,3.77
2019-02-25T16:18:53.515Z,6.83
2019-02-25T16:21:26.686Z,3.70
2019-02-25T16:23:59.219Z,4.70
2019-02-25T16:26:32.012Z,7.80
2019-02-25T16:29:06.406Z,3.63
2019-02-25T16:31:37.616Z,4.50
2019-02-25T16:34:10.044Z,6.00
2019-02-25T16:36:45.242Z,3.70
2019-02-25T16:39:16.168Z,11.10
2019-02-25T16:41:48.099Z,7.90
2019-02-25T16:44:19.549Z,6.30
2019-02-25T16:46:51.226Z,12.00
2019-02-25T16:49:23.228Z,13.27
2019-02-25T16:51:56.044Z,11.50
2019-02-25T16:54:28.492Z,9.17
2019-02-25T16:57:00.594Z,13.23
2019-02-25T16:59:31.750Z,14.23
2019-02-25T17:02:04.673Z,13.07
2019-02-25T17:04:35.751Z,12.47
2019-02-25T17:07:07.083Z,11.60
2019-02-25T17:09:39.148Z,11.73
2019-02-25T17:12:11.258Z,18.70
2019-02-25T17:14:42.566Z,14.27
2019-02-25T17:17:14.476Z,17.07
2019-02-25T17:19:46.467Z,14.60
2019-02-25T17:22:17.874Z,18.63
2019-02-25T17:24:49.503Z,20.47
2019-02-25T17:27:21.001Z,12.70
2019-02-25T17:29:53.848Z,17.67
2019-02-25T17:32:25.558Z,12.67
2019-02-25T17:34:58.191Z,12.53
2019-02-25T17:37:31.486Z,15.87
2019-02-25T17:40:04.432Z,19.60
2019-02-25T17:42:36.575Z,14.90
2019-02-25T17:45:10.914Z,16.97
2019-02-25T17:47:42.459Z,15.73
2019-02-25T17:50:17.372Z,14.43
2019-02-25T17:52:49.032Z,15.37
2019-02-25T17:55:22.123Z,16.20
2019-02-25T17:57:54.341Z,12.70
2019-02-25T18:00:35.006Z,22.50
2019-02-25T18:03:07.671Z,15.37
2019-02-25T18:05:40.787Z,15.77
2019-02-25T18:08:13.375Z,16.37
2019-02-25T18:10:45.989Z,16.77
2019-02-25T18:13:19.004Z,16.73
2019-02-25T18:15:52.046Z,20.90
2019-02-25T18:18:25.069Z,18.10
2019-02-25T18:20:56.395Z,17.23
2019-02-25T18:23:27.977Z,14.20
2019-02-25T18:25:59.917Z,15.87
2019-02-25T18:28:31.547Z,15.77
2019-02-25T18:31:04.437Z,16.83
2019-02-25T18:33:37.248Z,17.23
2019-02-25T18:36:11.195Z,16.77
2019-02-25T18:38:44.286Z,23.10
2019-02-25T18:41:16.736Z,14.77
2019-02-25T18:43:49.425Z,18.53
2019-02-25T18:46:23.372Z,17.53
2019-02-25T18:48:55.515Z,18.13
2019-02-25T18:51:28.295Z,16.73
2019-02-25T18:54:03.623Z,16.77
2019-02-25T18:56:35.798Z,28.47
2019-02-25T18:59:13.055Z,24.70
2019-02-25T19:01:41.291Z,22.53
2019-02-25T19:04:13.243Z,18.87
2019-02-25T19:06:47.853Z,27.67
2019-02-25T19:09:23.167Z,26.40
2019-02-25T19:11:57.793Z,26.93
2019-02-25T19:14:31.123Z,21.33
2019-02-25T19:17:04.832Z,27.90
2019-02-25T19:19:38.438Z,40.40
2019-02-25T19:22:10.814Z,29.10
2019-02-25T19:24:44.427Z,34.83
2019-02-25T19:27:16.230Z,29.13
2019-02-25T19:29:49.397Z,23.77
2019-02-25T19:32:23.035Z,25.23
2019-02-25T19:34:56.253Z,19.00
2019-02-25T19:37:31.156Z,25.83
2019-02-25T19:40:05.308Z,18.77
2019-02-25T19:42:35.143Z,19.83
2019-02-25T19:45:08.107Z,20.90
2019-02-25T19:47:43.130Z,22.63
2019-02-25T19:50:15.267Z,19.93
2019-02-25T19:52:46.729Z,25.00
2019-02-25T19:55:20.479Z,21.83
2019-02-25T19:57:51.376Z,17.83
2019-02-25T20:00:28.257Z,19.23
2019-02-25T20:03:05.830Z,20.77
2019-02-25T20:05:33.694Z,21.80
2019-02-25T20:08:06.412Z,20.07
2019-02-25T20:10:38.160Z,19.10
2019-02-25T20:13:10.083Z,22.13
2019-02-25T20:15:44.081Z,18.33
2019-02-25T20:18:16.160Z,20.30
2019-02-25T20:20:48.780Z,36.87
2019-02-25T20:23:22.294Z,27.77
2019-02-25T20:25:55.679Z,27.13
2019-02-25T20:28:27.943Z,23.73
2019-02-25T20:30:59.652Z,20.67
2019-02-25T20:33:32.954Z,18.00
2019-02-25T20:36:04.163Z,22.40
2019-02-25T20:38:37.270Z,22.17
2019-02-25T20:41:09.407Z,26.10
2019-02-25T20:43:40.728Z,20.13
2019-02-25T20:46:11.989Z,19.53
2019-02-25T20:48:46.428Z,28.63
2019-02-25T20:51:17.336Z,28.50
2019-02-25T20:53:50.690Z,18.20
2019-02-25T20:56:22.821Z,20.83
2019-02-25T20:58:55.364Z,28.63
2019-02-25T21:01:27.448Z,33.40
2019-02-25T21:03:59.379Z,37.23
2019-02-25T21:06:32.534Z,25.50
2019-02-25T21:09:05.046Z,25.13
2019-02-25T21:11:37.207Z,23.77
2019-02-25T21:14:09.052Z,24.03
2019-02-25T21:16:40.368Z,33.80
2019-02-25T21:19:13.068Z,23.57
2019-02-25T21:21:44.184Z,23.33
2019-02-25T21:24:15.003Z,30.00
2019-02-25T21:26:46.618Z,29.27
2019-02-25T21:29:17.671Z,27.10
2019-02-25T21:31:51.785Z,31.33
2019-02-25T21:34:24.322Z,30.03
2019-02-25T21:36:56.719Z,26.40
2019-02-25T21:39:28.798Z,21.23
2019-02-25T21:42:00.088Z,29.37
2019-02-25T21:44:31.676Z,25.50
2019-02-25T21:47:03.783Z,23.50
2019-02-25T21:49:36.464Z,24.43
2019-02-25T21:52:10.644Z,24.20
2019-02-25T21:54:42.148Z,26.10
2019-02-25T21:57:14.570Z,25.40
2019-02-25T21:59:46.101Z,27.23
2019-02-25T22:02:17.690Z,27.82
2019-02-25T22:04:50.134Z,26.43
2019-02-25T22:07:24.998Z,34.25
2019-02-25T22:09:55.457Z,43.10
2019-02-25T22:12:26.921Z,32.83
2019-02-25T22:15:00.033Z,32.85
2019-02-25T22:17:32.055Z,34.03
2019-02-25T22:20:04.933Z,27.60
2019-02-25T22:22:37.538Z,26.35
2019-02-25T22:25:11.923Z,26.77
2019-02-25T22:27:45.588Z,22.48
2019-02-25T22:30:18.097Z,24.27
2019-02-25T22:32:49.194Z,26.07
2019-02-25T22:35:21.126Z,31.68
2019-02-25T22:37:55.453Z,29.63
2019-02-25T22:40:27.883Z,21.97
2019-02-25T22:42:59.397Z,31.83
2019-02-25T22:45:32.657Z,23.22
2019-02-25T22:48:03.522Z,20.88
2019-02-25T22:50:36.046Z,21.05
2019-02-25T22:53:12.670Z,26.05
2019-02-25T22:55:44.928Z,25.37
2019-02-25T22:58:17.601Z,29.45
2019-02-25T23:00:54.063Z,25.48
2019-02-25T23:03:27.648Z,25.95
2019-02-25T23:05:58.789Z,20.95
2019-02-25T23:08:30.025Z,22.10
2019-02-25T23:11:01.665Z,20.25
2019-02-25T23:13:32.904Z,23.27
2019-02-25T23:16:04.793Z,20.70
2019-02-25T23:18:37.081Z,20.30
2019-02-25T23:21:08.755Z,21.73
2019-02-25T23:23:40.294Z,20.77
2019-02-25T23:26:12.694Z,23.07
2019-02-25T23:28:45.330Z,23.40
2019-02-25T23:31:17.249Z,21.07
2019-02-25T23:33:48.996Z,19.07
2019-02-25T23:36:22.203Z,21.62
2019-02-25T23:38:57.020Z,16.65
2019-02-25T23:41:31.892Z,23.65
2019-02-25T23:44:01.937Z,18.20
2019-02-25T23:46:34.702Z,23.15
2019-02-25T23:49:06.477Z,20.43
2019-02-25T23:51:39.426Z,22.07
2019-02-25T23:54:12.162Z,21.65
2019-02-25T23:56:47.652Z,21.17
2019-02-25T23:59:19.322Z,23.10
